sensor_id;sensor_type;location;lat;lon;timestamp;P1;durP1;ratioP1;P2;durP2;ratioP2
22186;SDS011;11259;52.146;12.844;2022-09-12T00:02:17;2.65;;;2.15;;
22186;SDS011;11259;52.146;12.844;2022-09-12T00:04:42;2.97;;;2.10;;
22186;SDS011;11259;52.146;12.844;2022-09-12T00:07:07;2.58;;;2.20;;
22186;SDS011;11259;52.146;12.844;2022-09-12T00:09:33;2.50;;;2.30;;
22186;SDS011;11259;52.146;12.844;2022-09-12T00:11:58;3.58;;;1.83;;
22186;SDS011;11259;52.146;12.844;2022-09-12T00:14:23;2.47;;;2.20;;
22186;SDS011;11259;52.146;12.844;2022-09-12T00:16:50;4.00;;;2.42;;
22186;SDS011;11259;52.146;12.844;2022-09-12T00:19:15;2.47;;;1.88;;
22186;SDS011;11259;52.146;12.844;2022-09-12T00:21:41;2.20;;;2.00;;
22186;SDS011;11259;52.146;12.844;2022-09-12T00:24:06;2.60;;;2.25;;
22186;SDS011;11259;52.146;12.844;2022-09-12T00:26:32;2.92;;;2.22;;
22186;SDS011;11259;52.146;12.844;2022-09-12T00:28:57;2.50;;;2.30;;
22186;SDS011;11259;52.146;12.844;2022-09-12T00:31:23;2.30;;;2.10;;
22186;SDS011;11259;52.146;12.844;2022-09-12T00:33:51;2.40;;;2.20;;
22186;SDS011;11259;52.146;12.844;2022-09-12T00:36:19;2.13;;;1.92;;
22186;SDS011;11259;52.146;12.844;2022-09-12T00:38:46;2.30;;;2.10;;
22186;SDS011;11259;52.146;12.844;2022-09-12T00:41:14;2.40;;;2.20;;
22186;SDS011;11259;52.146;12.844;2022-09-12T00:43:43;2.28;;;2.08;;
22186;SDS011;11259;52.146;12.844;2022-09-12T00:46:12;2.28;;;2.08;;
22186;SDS011;11259;52.146;12.844;2022-09-12T00:48:48;2.20;;;2.00;;
22186;SDS011;11259;52.146;12.844;2022-09-12T00:51:18;2.00;;;1.80;;
22186;SDS011;11259;52.146;12.844;2022-09-12T00:53:44;2.10;;;1.90;;
22186;SDS011;11259;52.146;12.844;2022-09-12T00:56:11;1.88;;;1.77;;
22186;SDS011;11259;52.146;12.844;2022-09-12T00:58:40;2.13;;;1.92;;
22186;SDS011;11259;52.146;12.844;2022-09-12T01:01:07;2.00;;;1.80;;
22186;SDS011;11259;52.146;12.844;2022-09-12T01:03:32;2.20;;;2.00;;
22186;SDS011;11259;52.146;12.844;2022-09-12T01:06:01;2.03;;;1.90;;
22186;SDS011;11259;52.146;12.844;2022-09-12T01:08:32;2.03;;;1.70;;
22186;SDS011;11259;52.146;12.844;2022-09-12T01:10:58;1.50;;;1.40;;
22186;SDS011;11259;52.146;12.844;2022-09-12T01:13:23;1.50;;;1.40;;
22186;SDS011;11259;52.146;12.844;2022-09-12T01:15:49;1.67;;;1.13;;
22186;SDS011;11259;52.146;12.844;2022-09-12T01:18:16;1.45;;;1.35;;
22186;SDS011;11259;52.146;12.844;2022-09-12T01:20:53;1.40;;;1.30;;
22186;SDS011;11259;52.146;12.844;2022-09-12T01:26:23;1.52;;;1.40;;
22186;SDS011;11259;52.146;12.844;2022-09-12T01:29:13;1.42;;;1.23;;
22186;SDS011;11259;52.146;12.844;2022-09-12T01:31:49;1.50;;;1.40;;
22186;SDS011;11259;52.146;12.844;2022-09-12T01:34:17;1.50;;;1.40;;
22186;SDS011;11259;52.146;12.844;2022-09-12T01:36:47;1.60;;;1.50;;
22186;SDS011;11259;52.146;12.844;2022-09-12T01:39:21;1.50;;;1.40;;
22186;SDS011;11259;52.146;12.844;2022-09-12T01:41:53;1.20;;;1.10;;
22186;SDS011;11259;52.146;12.844;2022-09-12T01:44:22;1.48;;;1.38;;
22186;SDS011;11259;52.146;12.844;2022-09-12T01:46:54;2.33;;;1.48;;
22186;SDS011;11259;52.146;12.844;2022-09-12T01:49:22;1.98;;;1.80;;
22186;SDS011;11259;52.146;12.844;2022-09-12T01:51:51;2.03;;;1.50;;
22186;SDS011;11259;52.146;12.844;2022-09-12T01:54:23;2.05;;;1.75;;
22186;SDS011;11259;52.146;12.844;2022-09-12T01:56:51;1.45;;;1.35;;
22186;SDS011;11259;52.146;12.844;2022-09-12T01:59:19;1.65;;;1.50;;
22186;SDS011;11259;52.146;12.844;2022-09-12T02:01:48;1.60;;;1.50;;
22186;SDS011;11259;52.146;12.844;2022-09-12T02:04:18;1.52;;;1.42;;
22186;SDS011;11259;52.146;12.844;2022-09-12T02:06:45;1.35;;;1.25;;
22186;SDS011;11259;52.146;12.844;2022-09-12T02:09:16;1.50;;;1.40;;
22186;SDS011;11259;52.146;12.844;2022-09-12T02:11:44;1.33;;;1.23;;
22186;SDS011;11259;52.146;12.844;2022-09-12T02:14:11;1.70;;;1.60;;
22186;SDS011;11259;52.146;12.844;2022-09-12T02:16:39;2.15;;;1.60;;
22186;SDS011;11259;52.146;12.844;2022-09-12T02:19:07;1.58;;;1.48;;
22186;SDS011;11259;52.146;12.844;2022-09-12T02:21:35;1.63;;;1.38;;
22186;SDS011;11259;52.146;12.844;2022-09-12T02:24:02;1.63;;;1.48;;
22186;SDS011;11259;52.146;12.844;2022-09-12T02:26:30;1.30;;;1.20;;
22186;SDS011;11259;52.146;12.844;2022-09-12T02:28:57;1.50;;;1.13;;
22186;SDS011;11259;52.146;12.844;2022-09-12T02:31:24;1.52;;;1.40;;
22186;SDS011;11259;52.146;12.844;2022-09-12T02:33:53;1.20;;;1.10;;
22186;SDS011;11259;52.146;12.844;2022-09-12T02:36:27;1.48;;;1.35;;
22186;SDS011;11259;52.146;12.844;2022-09-12T02:38:59;1.42;;;1.20;;
22186;SDS011;11259;52.146;12.844;2022-09-12T02:41:24;1.15;;;1.05;;
22186;SDS011;11259;52.146;12.844;2022-09-12T02:43:50;1.40;;;1.30;;
22186;SDS011;11259;52.146;12.844;2022-09-12T02:46:17;1.80;;;1.30;;
22186;SDS011;11259;52.146;12.844;2022-09-12T02:48:45;1.80;;;1.70;;
22186;SDS011;11259;52.146;12.844;2022-09-12T02:51:11;1.95;;;1.67;;
22186;SDS011;11259;52.146;12.844;2022-09-12T02:53:36;1.50;;;1.38;;
22186;SDS011;11259;52.146;12.844;2022-09-12T02:56:03;1.70;;;1.60;;
22186;SDS011;11259;52.146;12.844;2022-09-12T02:58:32;2.28;;;1.77;;
22186;SDS011;11259;52.146;12.844;2022-09-12T03:01:00;2.08;;;1.88;;
22186;SDS011;11259;52.146;12.844;2022-09-12T03:03:37;2.50;;;2.00;;
22186;SDS011;11259;52.146;12.844;2022-09-12T03:06:15;2.20;;;2.00;;
22186;SDS011;11259;52.146;12.844;2022-09-12T03:08:46;2.10;;;1.73;;
22186;SDS011;11259;52.146;12.844;2022-09-12T03:11:21;1.83;;;1.73;;
22186;SDS011;11259;52.146;12.844;2022-09-12T03:13:52;2.00;;;1.80;;
22186;SDS011;11259;52.146;12.844;2022-09-12T03:16:23;2.00;;;1.80;;
22186;SDS011;11259;52.146;12.844;2022-09-12T03:18:54;2.10;;;1.90;;
22186;SDS011;11259;52.146;12.844;2022-09-12T03:21:24;2.20;;;2.00;;
22186;SDS011;11259;52.146;12.844;2022-09-12T03:23:56;1.92;;;1.83;;
22186;SDS011;11259;52.146;12.844;2022-09-12T03:26:29;2.22;;;2.03;;
22186;SDS011;11259;52.146;12.844;2022-09-12T03:28:57;2.00;;;1.80;;
22186;SDS011;11259;52.146;12.844;2022-09-12T03:31:24;2.03;;;1.83;;
22186;SDS011;11259;52.146;12.844;2022-09-12T03:33:49;1.95;;;1.70;;
22186;SDS011;11259;52.146;12.844;2022-09-12T03:36:15;1.63;;;1.52;;
22186;SDS011;11259;52.146;12.844;2022-09-12T03:38:41;1.92;;;1.70;;
22186;SDS011;11259;52.146;12.844;2022-09-12T03:41:06;1.95;;;1.70;;
22186;SDS011;11259;52.146;12.844;2022-09-12T03:43:33;1.70;;;1.60;;
22186;SDS011;11259;52.146;12.844;2022-09-12T03:45:58;2.05;;;1.70;;
22186;SDS011;11259;52.146;12.844;2022-09-12T03:48:24;2.05;;;1.85;;
22186;SDS011;11259;52.146;12.844;2022-09-12T03:50:49;1.70;;;1.60;;
22186;SDS011;11259;52.146;12.844;2022-09-12T03:53:14;1.73;;;1.63;;
22186;SDS011;11259;52.146;12.844;2022-09-12T03:55:40;1.63;;;1.52;;
22186;SDS011;11259;52.146;12.844;2022-09-12T03:58:05;1.50;;;1.40;;
22186;SDS011;11259;52.146;12.844;2022-09-12T04:00:32;1.58;;;1.48;;
22186;SDS011;11259;52.146;12.844;2022-09-12T04:02:57;2.13;;;1.63;;
22186;SDS011;11259;52.146;12.844;2022-09-12T04:05:23;1.50;;;1.40;;
22186;SDS011;11259;52.146;12.844;2022-09-12T04:07:49;2.28;;;1.77;;
22186;SDS011;11259;52.146;12.844;2022-09-12T04:10:14;1.70;;;1.55;;
22186;SDS011;11259;52.146;12.844;2022-09-12T04:12:40;2.35;;;1.73;;
22186;SDS011;11259;52.146;12.844;2022-09-12T04:15:05;2.10;;;1.90;;
22186;SDS011;11259;52.146;12.844;2022-09-12T04:17:33;2.08;;;1.70;;
22186;SDS011;11259;52.146;12.844;2022-09-12T04:19:59;2.15;;;1.52;;
22186;SDS011;11259;52.146;12.844;2022-09-12T04:22:24;2.30;;;1.70;;
22186;SDS011;11259;52.146;12.844;2022-09-12T04:24:50;1.80;;;1.38;;
22186;SDS011;11259;52.146;12.844;2022-09-12T04:27:15;1.45;;;1.35;;
22186;SDS011;11259;52.146;12.844;2022-09-12T04:29:40;1.30;;;1.20;;
22186;SDS011;11259;52.146;12.844;2022-09-12T04:32:06;1.35;;;1.20;;
22186;SDS011;11259;52.146;12.844;2022-09-12T04:34:32;1.13;;;1.00;;
22186;SDS011;11259;52.146;12.844;2022-09-12T04:36:58;1.00;;;1.00;;
22186;SDS011;11259;52.146;12.844;2022-09-12T04:39:23;1.40;;;1.17;;
22186;SDS011;11259;52.146;12.844;2022-09-12T04:41:48;1.67;;;1.20;;
22186;SDS011;11259;52.146;12.844;2022-09-12T04:44:14;1.40;;;1.20;;
22186;SDS011;11259;52.146;12.844;2022-09-12T04:46:40;1.05;;;1.05;;
22186;SDS011;11259;52.146;12.844;2022-09-12T04:49:06;1.10;;;1.00;;
22186;SDS011;11259;52.146;12.844;2022-09-12T04:51:34;0.90;;;0.90;;
22186;SDS011;11259;52.146;12.844;2022-09-12T04:54:01;1.10;;;1.00;;
22186;SDS011;11259;52.146;12.844;2022-09-12T04:56:28;1.40;;;1.30;;
22186;SDS011;11259;52.146;12.844;2022-09-12T04:58:55;1.58;;;1.48;;
22186;SDS011;11259;52.146;12.844;2022-09-12T05:01:21;1.50;;;1.40;;
22186;SDS011;11259;52.146;12.844;2022-09-12T05:03:47;1.60;;;1.50;;
22186;SDS011;11259;52.146;12.844;2022-09-12T05:06:14;1.38;;;1.27;;
22186;SDS011;11259;52.146;12.844;2022-09-12T05:08:41;1.30;;;1.20;;
22186;SDS011;11259;52.146;12.844;2022-09-12T05:11:09;1.45;;;1.35;;
22186;SDS011;11259;52.146;12.844;2022-09-12T05:13:35;1.73;;;1.60;;
22186;SDS011;11259;52.146;12.844;2022-09-12T05:16:01;1.35;;;1.25;;
22186;SDS011;11259;52.146;12.844;2022-09-12T05:18:27;1.90;;;1.48;;
22186;SDS011;11259;52.146;12.844;2022-09-12T05:20:55;1.45;;;1.27;;
22186;SDS011;11259;52.146;12.844;2022-09-12T05:23:22;1.50;;;1.40;;
22186;SDS011;11259;52.146;12.844;2022-09-12T05:25:49;3.50;;;1.90;;
22186;SDS011;11259;52.146;12.844;2022-09-12T05:28:15;1.55;;;1.45;;
22186;SDS011;11259;52.146;12.844;2022-09-12T05:30:41;2.03;;;1.83;;
22186;SDS011;11259;52.146;12.844;2022-09-12T05:33:06;2.00;;;1.60;;
22186;SDS011;11259;52.146;12.844;2022-09-12T05:35:31;2.00;;;1.77;;
22186;SDS011;11259;52.146;12.844;2022-09-12T05:37:57;2.80;;;2.35;;
22186;SDS011;11259;52.146;12.844;2022-09-12T05:40:22;2.25;;;2.05;;
22186;SDS011;11259;52.146;12.844;2022-09-12T05:42:49;1.98;;;1.88;;
22186;SDS011;11259;52.146;12.844;2022-09-12T05:45:14;2.58;;;2.20;;
22186;SDS011;11259;52.146;12.844;2022-09-12T05:47:40;2.38;;;2.08;;
22186;SDS011;11259;52.146;12.844;2022-09-12T05:50:05;2.10;;;1.90;;
22186;SDS011;11259;52.146;12.844;2022-09-12T05:52:31;2.40;;;2.20;;
22186;SDS011;11259;52.146;12.844;2022-09-12T05:54:56;2.63;;;2.30;;
22186;SDS011;11259;52.146;12.844;2022-09-12T05:57:22;2.33;;;2.13;;
22186;SDS011;11259;52.146;12.844;2022-09-12T05:59:49;2.33;;;2.13;;
22186;SDS011;11259;52.146;12.844;2022-09-12T06:02:14;2.90;;;2.60;;
22186;SDS011;11259;52.146;12.844;2022-09-12T06:04:39;2.58;;;2.30;;
22186;SDS011;11259;52.146;12.844;2022-09-12T06:07:05;2.70;;;2.35;;
22186;SDS011;11259;52.146;12.844;2022-09-12T06:09:30;3.15;;;2.72;;
22186;SDS011;11259;52.146;12.844;2022-09-12T06:11:55;3.33;;;2.83;;
22186;SDS011;11259;52.146;12.844;2022-09-12T06:14:21;3.45;;;2.42;;
22186;SDS011;11259;52.146;12.844;2022-09-12T06:16:47;3.00;;;2.70;;
22186;SDS011;11259;52.146;12.844;2022-09-12T06:19:14;3.00;;;2.70;;
22186;SDS011;11259;52.146;12.844;2022-09-12T06:21:40;3.42;;;2.85;;
22186;SDS011;11259;52.146;12.844;2022-09-12T06:24:06;3.40;;;3.10;;
22186;SDS011;11259;52.146;12.844;2022-09-12T06:26:31;3.08;;;2.88;;
22186;SDS011;11259;52.146;12.844;2022-09-12T06:28:58;3.35;;;3.05;;
22186;SDS011;11259;52.146;12.844;2022-09-12T06:31:25;3.92;;;3.05;;
22186;SDS011;11259;52.146;12.844;2022-09-12T06:33:53;2.92;;;2.47;;
22186;SDS011;11259;52.146;12.844;2022-09-12T06:36:20;2.80;;;2.50;;
22186;SDS011;11259;52.146;12.844;2022-09-12T06:38:46;3.20;;;2.63;;
22186;SDS011;11259;52.146;12.844;2022-09-12T06:41:12;2.72;;;2.33;;
22186;SDS011;11259;52.146;12.844;2022-09-12T06:43:37;2.40;;;2.20;;
22186;SDS011;11259;52.146;12.844;2022-09-12T06:46:04;2.30;;;2.00;;
22186;SDS011;11259;52.146;12.844;2022-09-12T06:48:29;2.80;;;2.60;;
22186;SDS011;11259;52.146;12.844;2022-09-12T06:50:56;2.35;;;2.15;;
22186;SDS011;11259;52.146;12.844;2022-09-12T06:53:23;2.20;;;2.00;;
22186;SDS011;11259;52.146;12.844;2022-09-12T06:55:53;2.00;;;1.90;;
22186;SDS011;11259;52.146;12.844;2022-09-12T06:58:19;2.28;;;2.08;;
22186;SDS011;11259;52.146;12.844;2022-09-12T07:00:44;2.30;;;2.10;;
22186;SDS011;11259;52.146;12.844;2022-09-12T07:03:10;2.25;;;2.05;;
22186;SDS011;11259;52.146;12.844;2022-09-12T07:05:35;2.58;;;2.30;;
22186;SDS011;11259;52.146;12.844;2022-09-12T07:08:02;2.15;;;2.00;;
22186;SDS011;11259;52.146;12.844;2022-09-12T07:10:27;2.22;;;2.00;;
22186;SDS011;11259;52.146;12.844;2022-09-12T07:12:53;1.67;;;1.58;;
22186;SDS011;11259;52.146;12.844;2022-09-12T07:15:18;2.08;;;1.90;;
22186;SDS011;11259;52.146;12.844;2022-09-12T07:17:43;2.50;;;2.20;;
22186;SDS011;11259;52.146;12.844;2022-09-12T07:20:09;2.28;;;2.08;;
22186;SDS011;11259;52.146;12.844;2022-09-12T07:22:34;1.60;;;1.48;;
22186;SDS011;11259;52.146;12.844;2022-09-12T07:25:01;2.20;;;2.00;;
22186;SDS011;11259;52.146;12.844;2022-09-12T07:27:26;2.45;;;2.25;;
22186;SDS011;11259;52.146;12.844;2022-09-12T07:29:51;2.60;;;2.40;;
22186;SDS011;11259;52.146;12.844;2022-09-12T07:32:17;2.35;;;2.15;;
22186;SDS011;11259;52.146;12.844;2022-09-12T07:34:43;2.15;;;1.95;;
22186;SDS011;11259;52.146;12.844;2022-09-12T07:37:09;3.53;;;2.80;;
22186;SDS011;11259;52.146;12.844;2022-09-12T07:39:34;2.47;;;2.28;;
22186;SDS011;11259;52.146;12.844;2022-09-12T07:42:01;2.00;;;1.85;;
22186;SDS011;11259;52.146;12.844;2022-09-12T07:44:26;2.03;;;1.90;;
22186;SDS011;11259;52.146;12.844;2022-09-12T07:46:52;1.95;;;1.80;;
22186;SDS011;11259;52.146;12.844;2022-09-12T07:49:17;1.75;;;1.65;;
22186;SDS011;11259;52.146;12.844;2022-09-12T07:51:42;1.60;;;1.50;;
22186;SDS011;11259;52.146;12.844;2022-09-12T07:54:08;1.80;;;1.70;;
22186;SDS011;11259;52.146;12.844;2022-09-12T07:56:33;1.98;;;1.88;;
22186;SDS011;11259;52.146;12.844;2022-09-12T07:59:00;1.92;;;1.73;;
22186;SDS011;11259;52.146;12.844;2022-09-12T08:01:25;2.15;;;1.95;;
22186;SDS011;11259;52.146;12.844;2022-09-12T08:03:52;1.98;;;1.80;;
22186;SDS011;11259;52.146;12.844;2022-09-12T08:06:20;2.30;;;2.10;;
22186;SDS011;11259;52.146;12.844;2022-09-12T08:08:46;2.40;;;2.20;;
22186;SDS011;11259;52.146;12.844;2022-09-12T08:11:12;2.50;;;2.30;;
22186;SDS011;11259;52.146;12.844;2022-09-12T08:13:39;2.40;;;2.20;;
22186;SDS011;11259;52.146;12.844;2022-09-12T08:16:07;1.75;;;1.65;;
22186;SDS011;11259;52.146;12.844;2022-09-12T08:18:35;1.30;;;1.20;;
22186;SDS011;11259;52.146;12.844;2022-09-12T08:21:02;1.27;;;1.17;;
22186;SDS011;11259;52.146;12.844;2022-09-12T08:23:28;1.10;;;1.10;;
22186;SDS011;11259;52.146;12.844;2022-09-12T08:25:54;1.50;;;1.27;;
22186;SDS011;11259;52.146;12.844;2022-09-12T08:28:19;1.30;;;1.20;;
22186;SDS011;11259;52.146;12.844;2022-09-12T08:30:45;1.80;;;1.70;;
22186;SDS011;11259;52.146;12.844;2022-09-12T08:33:12;2.25;;;1.70;;
22186;SDS011;11259;52.146;12.844;2022-09-12T08:35:37;1.58;;;1.48;;
22186;SDS011;11259;52.146;12.844;2022-09-12T08:38:02;1.77;;;1.42;;
22186;SDS011;11259;52.146;12.844;2022-09-12T08:40:28;1.35;;;1.25;;
22186;SDS011;11259;52.146;12.844;2022-09-12T08:42:56;1.88;;;1.40;;
22186;SDS011;11259;52.146;12.844;2022-09-12T08:45:25;1.63;;;1.38;;
22186;SDS011;11259;52.146;12.844;2022-09-12T08:47:54;2.00;;;1.70;;
22186;SDS011;11259;52.146;12.844;2022-09-12T08:50:21;1.50;;;1.40;;
22186;SDS011;11259;52.146;12.844;2022-09-12T08:52:49;2.10;;;1.90;;
22186;SDS011;11259;52.146;12.844;2022-09-12T08:55:22;2.20;;;2.00;;
22186;SDS011;11259;52.146;12.844;2022-09-12T08:57:49;2.05;;;1.85;;
22186;SDS011;11259;52.146;12.844;2022-09-12T09:00:15;1.73;;;1.63;;
22186;SDS011;11259;52.146;12.844;2022-09-12T09:05:43;2.03;;;1.60;;
22186;SDS011;11259;52.146;12.844;2022-09-12T09:08:20;1.60;;;1.50;;
22186;SDS011;11259;52.146;12.844;2022-09-12T09:10:52;1.50;;;1.40;;
22186;SDS011;11259;52.146;12.844;2022-09-12T09:13:30;1.70;;;1.60;;
22186;SDS011;11259;52.146;12.844;2022-09-12T09:16:03;1.55;;;1.45;;
22186;SDS011;11259;52.146;12.844;2022-09-12T09:18:33;1.60;;;1.50;;
22186;SDS011;11259;52.146;12.844;2022-09-12T09:21:01;1.50;;;1.35;;
22186;SDS011;11259;52.146;12.844;2022-09-12T09:23:28;1.67;;;1.58;;
22186;SDS011;11259;52.146;12.844;2022-09-12T09:25:56;2.20;;;1.65;;
22186;SDS011;11259;52.146;12.844;2022-09-12T09:28:24;1.63;;;1.52;;
22186;SDS011;11259;52.146;12.844;2022-09-12T09:30:54;2.08;;;1.52;;
22186;SDS011;11259;52.146;12.844;2022-09-12T09:33:21;1.73;;;1.30;;
22186;SDS011;11259;52.146;12.844;2022-09-12T09:35:47;1.45;;;1.30;;
22186;SDS011;11259;52.146;12.844;2022-09-12T09:38:22;1.38;;;1.27;;
22186;SDS011;11259;52.146;12.844;2022-09-12T09:40:51;1.65;;;1.55;;
22186;SDS011;11259;52.146;12.844;2022-09-12T09:43:22;1.55;;;1.40;;
22186;SDS011;11259;52.146;12.844;2022-09-12T09:45:48;2.03;;;1.50;;
22186;SDS011;11259;52.146;12.844;2022-09-12T09:48:15;1.60;;;1.50;;
22186;SDS011;11259;52.146;12.844;2022-09-12T09:50:42;2.83;;;1.63;;
22186;SDS011;11259;52.146;12.844;2022-09-12T09:53:08;1.95;;;1.50;;
22186;SDS011;11259;52.146;12.844;2022-09-12T09:55:50;1.73;;;1.58;;
22186;SDS011;11259;52.146;12.844;2022-09-12T09:58:26;1.67;;;1.48;;
22186;SDS011;11259;52.146;12.844;2022-09-12T10:00:53;1.50;;;1.40;;
22186;SDS011;11259;52.146;12.844;2022-09-12T10:03:33;1.55;;;1.45;;
22186;SDS011;11259;52.146;12.844;2022-09-12T10:05:59;2.55;;;1.08;;
22186;SDS011;11259;52.146;12.844;2022-09-12T10:08:26;1.10;;;1.00;;
22186;SDS011;11259;52.146;12.844;2022-09-12T10:10:58;1.52;;;1.38;;
22186;SDS011;11259;52.146;12.844;2022-09-12T10:13:30;2.35;;;1.48;;
22186;SDS011;11259;52.146;12.844;2022-09-12T10:15:59;1.58;;;1.48;;
22186;SDS011;11259;52.146;12.844;2022-09-12T10:18:31;1.08;;;0.98;;
22186;SDS011;11259;52.146;12.844;2022-09-12T10:20:58;1.20;;;1.10;;
22186;SDS011;11259;52.146;12.844;2022-09-12T10:23:26;1.20;;;1.10;;
22186;SDS011;11259;52.146;12.844;2022-09-12T10:25:55;0.98;;;0.98;;
22186;SDS011;11259;52.146;12.844;2022-09-12T10:28:24;1.00;;;0.95;;
22186;SDS011;11259;52.146;12.844;2022-09-12T10:30:55;1.00;;;1.00;;
22186;SDS011;11259;52.146;12.844;2022-09-12T10:33:20;1.20;;;1.10;;
22186;SDS011;11259;52.146;12.844;2022-09-12T10:35:47;1.08;;;1.00;;
22186;SDS011;11259;52.146;12.844;2022-09-12T10:38:15;1.15;;;1.00;;
22186;SDS011;11259;52.146;12.844;2022-09-12T10:40:42;0.75;;;0.75;;
22186;SDS011;11259;52.146;12.844;2022-09-12T10:43:16;0.88;;;0.88;;
22186;SDS011;11259;52.146;12.844;2022-09-12T10:45:42;1.02;;;0.93;;
22186;SDS011;11259;52.146;12.844;2022-09-12T10:48:21;1.20;;;1.10;;
22186;SDS011;11259;52.146;12.844;2022-09-12T10:50:49;1.02;;;1.02;;
22186;SDS011;11259;52.146;12.844;2022-09-12T10:53:17;1.77;;;1.10;;
22186;SDS011;11259;52.146;12.844;2022-09-12T10:55:51;0.90;;;0.90;;
22186;SDS011;11259;52.146;12.844;2022-09-12T10:58:37;1.58;;;0.90;;
22186;SDS011;11259;52.146;12.844;2022-09-12T11:01:26;0.90;;;0.90;;
22186;SDS011;11259;52.146;12.844;2022-09-12T11:04:02;0.95;;;0.95;;
22186;SDS011;11259;52.146;12.844;2022-09-12T11:06:37;0.77;;;0.77;;
22186;SDS011;11259;52.146;12.844;2022-09-12T11:09:05;1.10;;;1.00;;
22186;SDS011;11259;52.146;12.844;2022-09-12T11:11:37;1.25;;;0.90;;
22186;SDS011;11259;52.146;12.844;2022-09-12T11:14:15;0.85;;;0.75;;
22186;SDS011;11259;52.146;12.844;2022-09-12T11:16:51;0.80;;;0.80;;
22186;SDS011;11259;52.146;12.844;2022-09-12T11:19:32;1.10;;;1.00;;
22186;SDS011;11259;52.146;12.844;2022-09-12T11:22:09;0.75;;;0.75;;
22186;SDS011;11259;52.146;12.844;2022-09-12T11:24:46;0.82;;;0.82;;
22186;SDS011;11259;52.146;12.844;2022-09-12T11:27:27;1.10;;;1.00;;
22186;SDS011;11259;52.146;12.844;2022-09-12T11:30:00;1.10;;;1.00;;
22186;SDS011;11259;52.146;12.844;2022-09-12T11:32:38;1.40;;;1.30;;
22186;SDS011;11259;52.146;12.844;2022-09-12T11:35:09;1.48;;;1.20;;
22186;SDS011;11259;52.146;12.844;2022-09-12T11:37:44;1.08;;;0.90;;
22186;SDS011;11259;52.146;12.844;2022-09-12T11:40:21;3.00;;;1.27;;
22186;SDS011;11259;52.146;12.844;2022-09-12T11:42:52;1.60;;;1.15;;
22186;SDS011;11259;52.146;12.844;2022-09-12T11:45:24;1.70;;;1.13;;
22186;SDS011;11259;52.146;12.844;2022-09-12T11:47:53;1.20;;;1.10;;
22186;SDS011;11259;52.146;12.844;2022-09-12T11:50:21;1.05;;;0.98;;
22186;SDS011;11259;52.146;12.844;2022-09-12T11:52:50;1.00;;;1.00;;
22186;SDS011;11259;52.146;12.844;2022-09-12T11:55:17;1.10;;;1.00;;
22186;SDS011;11259;52.146;12.844;2022-09-12T11:57:44;2.17;;;1.25;;
22186;SDS011;11259;52.146;12.844;2022-09-12T12:00:14;1.60;;;1.10;;
22186;SDS011;11259;52.146;12.844;2022-09-12T12:02:42;1.23;;;1.13;;
22186;SDS011;11259;52.146;12.844;2022-09-12T12:05:16;1.17;;;1.00;;
22186;SDS011;11259;52.146;12.844;2022-09-12T12:07:46;1.85;;;1.05;;
22186;SDS011;11259;52.146;12.844;2022-09-12T12:10:23;1.15;;;1.00;;
22186;SDS011;11259;52.146;12.844;2022-09-12T12:12:50;1.10;;;1.00;;
22186;SDS011;11259;52.146;12.844;2022-09-12T12:15:16;1.00;;;0.90;;
22186;SDS011;11259;52.146;12.844;2022-09-12T12:17:43;1.10;;;1.00;;
22186;SDS011;11259;52.146;12.844;2022-09-12T12:20:13;0.90;;;0.90;;
22186;SDS011;11259;52.146;12.844;2022-09-12T12:22:40;0.90;;;0.90;;
22186;SDS011;11259;52.146;12.844;2022-09-12T12:25:23;0.95;;;0.80;;
22186;SDS011;11259;52.146;12.844;2022-09-12T12:36:04;1.33;;;1.23;;
22186;SDS011;11259;52.146;12.844;2022-09-12T12:38:32;1.20;;;1.00;;
22186;SDS011;11259;52.146;12.844;2022-09-12T12:44:00;1.25;;;1.00;;
22186;SDS011;11259;52.146;12.844;2022-09-12T12:47:14;0.80;;;0.80;;
22186;SDS011;11259;52.146;12.844;2022-09-12T12:49:41;0.98;;;0.90;;
22186;SDS011;11259;52.146;12.844;2022-09-12T12:52:15;1.10;;;1.00;;
22186;SDS011;11259;52.146;12.844;2022-09-12T12:57:27;1.10;;;1.00;;
22186;SDS011;11259;52.146;12.844;2022-09-12T12:59:59;0.80;;;0.80;;
22186;SDS011;11259;52.146;12.844;2022-09-12T13:02:27;1.05;;;0.95;;
22186;SDS011;11259;52.146;12.844;2022-09-12T13:04:54;1.15;;;0.90;;
22186;SDS011;11259;52.146;12.844;2022-09-12T13:07:24;0.80;;;0.80;;
22186;SDS011;11259;52.146;12.844;2022-09-12T13:09:51;0.80;;;0.80;;
22186;SDS011;11259;52.146;12.844;2022-09-12T13:12:18;1.85;;;0.90;;
22186;SDS011;11259;52.146;12.844;2022-09-12T13:14:49;0.80;;;0.80;;
22186;SDS011;11259;52.146;12.844;2022-09-12T13:17:24;0.80;;;0.80;;
22186;SDS011;11259;52.146;12.844;2022-09-12T13:19:52;1.10;;;1.00;;
22186;SDS011;11259;52.146;12.844;2022-09-12T13:22:20;0.90;;;0.80;;
22186;SDS011;11259;52.146;12.844;2022-09-12T13:24:48;1.17;;;0.90;;
22186;SDS011;11259;52.146;12.844;2022-09-12T13:27:17;1.35;;;1.00;;
22186;SDS011;11259;52.146;12.844;2022-09-12T13:29:43;1.25;;;0.80;;
22186;SDS011;11259;52.146;12.844;2022-09-12T13:32:09;1.33;;;0.80;;
22186;SDS011;11259;52.146;12.844;2022-09-12T13:34:36;1.00;;;0.88;;
22186;SDS011;11259;52.146;12.844;2022-09-12T13:37:13;1.27;;;1.02;;
22186;SDS011;11259;52.146;12.844;2022-09-12T13:39:48;1.10;;;1.00;;
22186;SDS011;11259;52.146;12.844;2022-09-12T13:45:01;0.93;;;0.93;;
22186;SDS011;11259;52.146;12.844;2022-09-12T13:47:30;1.27;;;1.15;;
22186;SDS011;11259;52.146;12.844;2022-09-12T13:49:57;1.65;;;0.90;;
22186;SDS011;11259;52.146;12.844;2022-09-12T13:52:23;1.00;;;1.00;;
22186;SDS011;11259;52.146;12.844;2022-09-12T13:54:52;1.15;;;1.05;;
22186;SDS011;11259;52.146;12.844;2022-09-12T13:57:27;0.95;;;0.90;;
22186;SDS011;11259;52.146;12.844;2022-09-12T13:59:54;0.80;;;0.80;;
22186;SDS011;11259;52.146;12.844;2022-09-12T14:02:21;1.00;;;1.00;;
22186;SDS011;11259;52.146;12.844;2022-09-12T14:04:49;1.15;;;1.00;;
22186;SDS011;11259;52.146;12.844;2022-09-12T14:07:17;1.10;;;1.00;;
22186;SDS011;11259;52.146;12.844;2022-09-12T14:09:44;1.10;;;1.00;;
22186;SDS011;11259;52.146;12.844;2022-09-12T14:12:14;0.98;;;0.98;;
22186;SDS011;11259;52.146;12.844;2022-09-12T14:14:45;1.00;;;1.00;;
22186;SDS011;11259;52.146;12.844;2022-09-12T14:17:15;0.90;;;0.90;;
22186;SDS011;11259;52.146;12.844;2022-09-12T14:19:41;0.95;;;0.93;;
22186;SDS011;11259;52.146;12.844;2022-09-12T14:22:06;0.80;;;0.80;;
22186;SDS011;11259;52.146;12.844;2022-09-12T14:24:32;1.00;;;1.00;;
22186;SDS011;11259;52.146;12.844;2022-09-12T14:26:58;0.90;;;0.90;;
22186;SDS011;11259;52.146;12.844;2022-09-12T14:29:24;1.08;;;0.95;;
22186;SDS011;11259;52.146;12.844;2022-09-12T14:31:59;0.80;;;0.80;;
22186;SDS011;11259;52.146;12.844;2022-09-12T14:34:25;1.38;;;1.05;;
22186;SDS011;11259;52.146;12.844;2022-09-12T14:36:50;0.85;;;0.85;;
22186;SDS011;11259;52.146;12.844;2022-09-12T14:39:19;0.93;;;0.93;;
22186;SDS011;11259;52.146;12.844;2022-09-12T14:41:47;0.88;;;0.88;;
22186;SDS011;11259;52.146;12.844;2022-09-12T14:44:14;0.90;;;0.90;;
22186;SDS011;11259;52.146;12.844;2022-09-12T14:46:43;1.23;;;0.93;;
22186;SDS011;11259;52.146;12.844;2022-09-12T14:49:09;1.70;;;1.08;;
22186;SDS011;11259;52.146;12.844;2022-09-12T14:51:38;0.95;;;0.93;;
22186;SDS011;11259;52.146;12.844;2022-09-12T14:54:05;1.42;;;0.90;;
22186;SDS011;11259;52.146;12.844;2022-09-12T14:56:37;1.20;;;1.10;;
22186;SDS011;11259;52.146;12.844;2022-09-12T15:04:47;1.30;;;1.00;;
22186;SDS011;11259;52.146;12.844;2022-09-12T15:07:13;0.80;;;0.80;;
22186;SDS011;11259;52.146;12.844;2022-09-12T15:09:39;1.08;;;1.00;;